sensor_id;sensor_type;location;lat;lon;timestamp;P1;durP1;ratioP1;P2;durP2;ratioP2
70138;SDS011;57507;43.056;0.150;2023-08-17T00:02:21;6.15;;;3.42;;
70138;SDS011;57507;43.056;0.150;2023-08-17T00:04:47;5.60;;;3.65;;
70138;SDS011;57507;43.056;0.150;2023-08-17T00:07:13;4.53;;;3.20;;
70138;SDS011;57507;43.056;0.150;2023-08-17T00:09:39;4.50;;;3.40;;
70138;SDS011;57507;43.056;0.150;2023-08-17T00:12:05;5.70;;;3.95;;
70138;SDS011;57507;43.056;0.150;2023-08-17T00:14:31;3.35;;;2.85;;
70138;SDS011;57507;43.056;0.150;2023-08-17T00:16:57;4.57;;;3.05;;
70138;SDS011;57507;43.056;0.150;2023-08-17T00:19:23;5.25;;;2.80;;
70138;SDS011;57507;43.056;0.150;2023-08-17T00:21:50;4.60;;;3.63;;
70138;SDS011;57507;43.056;0.150;2023-08-17T00:24:17;5.65;;;3.22;;
70138;SDS011;57507;43.056;0.150;2023-08-17T00:26:43;3.80;;;3.20;;
70138;SDS011;57507;43.056;0.150;2023-08-17T00:29:09;4.00;;;2.88;;
70138;SDS011;57507;43.056;0.150;2023-08-17T00:31:35;5.15;;;3.25;;
70138;SDS011;57507;43.056;0.150;2023-08-17T00:34:01;4.75;;;3.08;;
70138;SDS011;57507;43.056;0.150;2023-08-17T00:36:27;4.45;;;3.30;;
70138;SDS011;57507;43.056;0.150;2023-08-17T00:38:53;3.90;;;3.30;;
70138;SDS011;57507;43.056;0.150;2023-08-17T00:41:19;5.65;;;3.10;;
70138;SDS011;57507;43.056;0.150;2023-08-17T00:43:46;3.50;;;2.80;;
70138;SDS011;57507;43.056;0.150;2023-08-17T00:46:12;3.20;;;2.55;;
70138;SDS011;57507;43.056;0.150;2023-08-17T00:48:39;3.55;;;3.10;;
70138;SDS011;57507;43.056;0.150;2023-08-17T00:51:05;4.53;;;3.00;;
70138;SDS011;57507;43.056;0.150;2023-08-17T00:53:31;6.22;;;2.88;;
70138;SDS011;57507;43.056;0.150;2023-08-17T00:55:57;3.50;;;2.72;;
70138;SDS011;57507;43.056;0.150;2023-08-17T00:58:24;4.30;;;3.17;;
70138;SDS011;57507;43.056;0.150;2023-08-17T01:00:51;4.43;;;3.13;;
70138;SDS011;57507;43.056;0.150;2023-08-17T01:03:17;4.57;;;2.90;;
70138;SDS011;57507;43.056;0.150;2023-08-17T01:05:44;8.00;;;3.67;;
70138;SDS011;57507;43.056;0.150;2023-08-17T01:08:10;3.22;;;2.75;;
70138;SDS011;57507;43.056;0.150;2023-08-17T01:13:24;4.13;;;2.97;;
70138;SDS011;57507;43.056;0.150;2023-08-17T01:15:52;6.70;;;3.22;;
70138;SDS011;57507;43.056;0.150;2023-08-17T01:18:23;7.90;;;3.60;;
70138;SDS011;57507;43.056;0.150;2023-08-17T01:20:50;4.88;;;3.47;;
70138;SDS011;57507;43.056;0.150;2023-08-17T01:23:17;7.05;;;3.00;;
70138;SDS011;57507;43.056;0.150;2023-08-17T01:25:44;4.28;;;2.95;;
70138;SDS011;57507;43.056;0.150;2023-08-17T01:28:10;6.40;;;3.08;;
70138;SDS011;57507;43.056;0.150;2023-08-17T01:31:24;6.13;;;3.10;;
70138;SDS011;57507;43.056;0.150;2023-08-17T01:33:29;5.53;;;3.67;;
70138;SDS011;57507;43.056;0.150;2023-08-17T01:38:29;5.15;;;3.53;;
70138;SDS011;57507;43.056;0.150;2023-08-17T01:40:55;4.32;;;3.20;;
70138;SDS011;57507;43.056;0.150;2023-08-17T01:43:22;6.55;;;3.70;;
70138;SDS011;57507;43.056;0.150;2023-08-17T01:45:48;5.65;;;3.33;;
70138;SDS011;57507;43.056;0.150;2023-08-17T01:48:14;5.45;;;3.60;;
70138;SDS011;57507;43.056;0.150;2023-08-17T01:50:40;5.95;;;3.65;;
70138;SDS011;57507;43.056;0.150;2023-08-17T01:53:07;6.30;;;3.75;;
70138;SDS011;57507;43.056;0.150;2023-08-17T01:55:34;4.50;;;2.95;;
70138;SDS011;57507;43.056;0.150;2023-08-17T01:58:01;5.20;;;3.05;;
70138;SDS011;57507;43.056;0.150;2023-08-17T02:00:27;5.20;;;3.38;;
70138;SDS011;57507;43.056;0.150;2023-08-17T02:02:53;5.32;;;3.28;;
70138;SDS011;57507;43.056;0.150;2023-08-17T02:05:19;4.75;;;3.10;;
70138;SDS011;57507;43.056;0.150;2023-08-17T02:07:45;4.25;;;3.08;;
70138;SDS011;57507;43.056;0.150;2023-08-17T02:10:11;5.53;;;3.30;;
70138;SDS011;57507;43.056;0.150;2023-08-17T02:12:37;5.32;;;3.78;;
70138;SDS011;57507;43.056;0.150;2023-08-17T02:15:04;3.45;;;3.03;;
70138;SDS011;57507;43.056;0.150;2023-08-17T02:17:30;3.40;;;2.67;;
70138;SDS011;57507;43.056;0.150;2023-08-17T02:19:56;4.43;;;3.03;;
70138;SDS011;57507;43.056;0.150;2023-08-17T02:22:22;4.53;;;2.90;;
70138;SDS011;57507;43.056;0.150;2023-08-17T02:24:48;4.95;;;3.08;;
70138;SDS011;57507;43.056;0.150;2023-08-17T02:27:14;5.30;;;3.20;;
70138;SDS011;57507;43.056;0.150;2023-08-17T02:29:40;4.07;;;3.10;;
70138;SDS011;57507;43.056;0.150;2023-08-17T02:32:06;4.25;;;2.80;;
70138;SDS011;57507;43.056;0.150;2023-08-17T02:34:32;5.93;;;3.28;;
70138;SDS011;57507;43.056;0.150;2023-08-17T02:36:58;6.47;;;3.33;;
70138;SDS011;57507;43.056;0.150;2023-08-17T02:39:24;4.75;;;2.85;;
70138;SDS011;57507;43.056;0.150;2023-08-17T02:41:50;4.65;;;3.30;;
70138;SDS011;57507;43.056;0.150;2023-08-17T02:44:16;4.03;;;3.05;;
70138;SDS011;57507;43.056;0.150;2023-08-17T02:46:42;4.88;;;3.33;;
70138;SDS011;57507;43.056;0.150;2023-08-17T02:49:08;5.85;;;3.92;;
70138;SDS011;57507;43.056;0.150;2023-08-17T02:51:34;5.78;;;3.25;;
70138;SDS011;57507;43.056;0.150;2023-08-17T02:54:00;4.45;;;3.10;;
70138;SDS011;57507;43.056;0.150;2023-08-17T02:56:27;4.13;;;3.08;;
70138;SDS011;57507;43.056;0.150;2023-08-17T02:58:53;6.55;;;3.15;;
70138;SDS011;57507;43.056;0.150;2023-08-17T03:01:19;3.55;;;2.88;;
70138;SDS011;57507;43.056;0.150;2023-08-17T03:03:45;5.85;;;3.67;;
70138;SDS011;57507;43.056;0.150;2023-08-17T03:06:11;4.70;;;3.40;;
70138;SDS011;57507;43.056;0.150;2023-08-17T03:08:37;4.10;;;3.38;;
70138;SDS011;57507;43.056;0.150;2023-08-17T03:11:03;6.63;;;3.40;;
70138;SDS011;57507;43.056;0.150;2023-08-17T03:13:32;4.50;;;3.08;;
70138;SDS011;57507;43.056;0.150;2023-08-17T03:15:58;3.45;;;2.65;;
70138;SDS011;57507;43.056;0.150;2023-08-17T03:18:24;7.28;;;3.55;;
70138;SDS011;57507;43.056;0.150;2023-08-17T03:20:50;2.85;;;2.55;;
70138;SDS011;57507;43.056;0.150;2023-08-17T03:23:16;5.63;;;3.92;;
70138;SDS011;57507;43.056;0.150;2023-08-17T03:25:42;3.95;;;2.85;;
70138;SDS011;57507;43.056;0.150;2023-08-17T03:28:08;4.25;;;2.80;;
70138;SDS011;57507;43.056;0.150;2023-08-17T03:30:34;3.55;;;2.70;;
70138;SDS011;57507;43.056;0.150;2023-08-17T03:33:00;5.68;;;2.72;;
70138;SDS011;57507;43.056;0.150;2023-08-17T03:35:26;4.75;;;2.78;;
70138;SDS011;57507;43.056;0.150;2023-08-17T03:37:52;3.95;;;2.85;;
70138;SDS011;57507;43.056;0.150;2023-08-17T03:40:19;4.63;;;2.42;;
70138;SDS011;57507;43.056;0.150;2023-08-17T03:42:45;8.70;;;4.35;;
70138;SDS011;57507;43.056;0.150;2023-08-17T03:45:11;6.90;;;4.05;;
70138;SDS011;57507;43.056;0.150;2023-08-17T03:47:37;4.30;;;2.97;;
70138;SDS011;57507;43.056;0.150;2023-08-17T03:50:03;5.05;;;2.85;;
70138;SDS011;57507;43.056;0.150;2023-08-17T03:52:29;4.15;;;2.85;;
70138;SDS011;57507;43.056;0.150;2023-08-17T03:54:55;3.85;;;2.85;;
70138;SDS011;57507;43.056;0.150;2023-08-17T03:57:21;5.78;;;3.38;;
70138;SDS011;57507;43.056;0.150;2023-08-17T03:59:47;4.38;;;3.42;;
70138;SDS011;57507;43.056;0.150;2023-08-17T04:02:13;5.55;;;3.40;;
70138;SDS011;57507;43.056;0.150;2023-08-17T04:04:39;4.80;;;2.97;;
70138;SDS011;57507;43.056;0.150;2023-08-17T04:07:05;5.13;;;3.00;;
70138;SDS011;57507;43.056;0.150;2023-08-17T04:09:32;4.15;;;2.92;;
70138;SDS011;57507;43.056;0.150;2023-08-17T04:11:58;4.10;;;3.05;;
70138;SDS011;57507;43.056;0.150;2023-08-17T04:14:24;3.45;;;2.80;;
70138;SDS011;57507;43.056;0.150;2023-08-17T04:16:51;3.63;;;2.97;;
70138;SDS011;57507;43.056;0.150;2023-08-17T04:19:17;3.88;;;2.85;;
70138;SDS011;57507;43.056;0.150;2023-08-17T04:21:43;5.93;;;3.40;;
70138;SDS011;57507;43.056;0.150;2023-08-17T04:24:09;5.28;;;3.03;;
70138;SDS011;57507;43.056;0.150;2023-08-17T04:26:35;5.80;;;3.00;;
70138;SDS011;57507;43.056;0.150;2023-08-17T04:29:01;5.10;;;3.05;;
70138;SDS011;57507;43.056;0.150;2023-08-17T04:31:27;4.07;;;3.20;;
70138;SDS011;57507;43.056;0.150;2023-08-17T04:33:53;3.75;;;2.72;;
70138;SDS011;57507;43.056;0.150;2023-08-17T04:36:19;4.75;;;3.15;;
70138;SDS011;57507;43.056;0.150;2023-08-17T04:38:45;5.45;;;3.17;;
70138;SDS011;57507;43.056;0.150;2023-08-17T04:41:11;3.78;;;2.72;;
70138;SDS011;57507;43.056;0.150;2023-08-17T04:43:37;4.60;;;2.90;;
70138;SDS011;57507;43.056;0.150;2023-08-17T04:46:03;3.38;;;2.72;;
70138;SDS011;57507;43.056;0.150;2023-08-17T04:48:29;4.93;;;3.10;;
70138;SDS011;57507;43.056;0.150;2023-08-17T04:50:55;5.30;;;3.20;;
70138;SDS011;57507;43.056;0.150;2023-08-17T04:53:22;5.72;;;3.13;;
70138;SDS011;57507;43.056;0.150;2023-08-17T04:55:48;4.82;;;3.20;;
70138;SDS011;57507;43.056;0.150;2023-08-17T04:58:14;4.20;;;2.88;;
70138;SDS011;57507;43.056;0.150;2023-08-17T05:00:40;6.13;;;3.60;;
70138;SDS011;57507;43.056;0.150;2023-08-17T05:03:06;8.63;;;3.85;;
70138;SDS011;57507;43.056;0.150;2023-08-17T05:05:32;4.30;;;3.10;;
70138;SDS011;57507;43.056;0.150;2023-08-17T05:08:00;4.30;;;2.97;;
70138;SDS011;57507;43.056;0.150;2023-08-17T05:10:26;3.78;;;2.85;;
70138;SDS011;57507;43.056;0.150;2023-08-17T05:12:52;3.95;;;3.05;;
70138;SDS011;57507;43.056;0.150;2023-08-17T05:15:18;3.53;;;2.70;;
70138;SDS011;57507;43.056;0.150;2023-08-17T05:17:44;7.05;;;3.05;;
70138;SDS011;57507;43.056;0.150;2023-08-17T05:20:10;7.28;;;3.13;;
70138;SDS011;57507;43.056;0.150;2023-08-17T05:22:38;5.43;;;3.33;;
70138;SDS011;57507;43.056;0.150;2023-08-17T05:25:04;4.68;;;2.70;;
70138;SDS011;57507;43.056;0.150;2023-08-17T05:27:30;3.88;;;2.65;;
70138;SDS011;57507;43.056;0.150;2023-08-17T05:29:56;3.90;;;3.00;;
70138;SDS011;57507;43.056;0.150;2023-08-17T05:32:22;6.70;;;3.30;;
70138;SDS011;57507;43.056;0.150;2023-08-17T05:34:48;4.00;;;3.17;;
70138;SDS011;57507;43.056;0.150;2023-08-17T05:37:14;4.28;;;3.15;;
70138;SDS011;57507;43.056;0.150;2023-08-17T05:39:41;3.50;;;2.63;;
70138;SDS011;57507;43.056;0.150;2023-08-17T05:42:07;5.57;;;3.10;;
70138;SDS011;57507;43.056;0.150;2023-08-17T05:44:34;7.43;;;3.33;;
70138;SDS011;57507;43.056;0.150;2023-08-17T05:47:01;4.05;;;2.70;;
70138;SDS011;57507;43.056;0.150;2023-08-17T05:49:27;20.55;;;3.30;;
70138;SDS011;57507;43.056;0.150;2023-08-17T05:51:53;3.90;;;2.58;;
70138;SDS011;57507;43.056;0.150;2023-08-17T05:54:19;5.05;;;2.95;;
70138;SDS011;57507;43.056;0.150;2023-08-17T05:56:45;4.25;;;2.80;;
70138;SDS011;57507;43.056;0.150;2023-08-17T05:59:11;6.20;;;2.80;;
70138;SDS011;57507;43.056;0.150;2023-08-17T06:01:37;3.05;;;2.60;;
70138;SDS011;57507;43.056;0.150;2023-08-17T06:04:04;5.28;;;2.85;;
70138;SDS011;57507;43.056;0.150;2023-08-17T06:06:30;3.97;;;2.78;;
70138;SDS011;57507;43.056;0.150;2023-08-17T06:08:56;3.97;;;2.83;;
70138;SDS011;57507;43.056;0.150;2023-08-17T06:11:22;3.92;;;2.90;;
70138;SDS011;57507;43.056;0.150;2023-08-17T06:13:49;4.13;;;2.60;;
70138;SDS011;57507;43.056;0.150;2023-08-17T06:16:15;4.32;;;2.83;;
70138;SDS011;57507;43.056;0.150;2023-08-17T06:18:41;3.72;;;2.53;;
70138;SDS011;57507;43.056;0.150;2023-08-17T06:21:08;3.33;;;2.67;;
70138;SDS011;57507;43.056;0.150;2023-08-17T06:23:34;3.40;;;2.38;;
70138;SDS011;57507;43.056;0.150;2023-08-17T06:26:00;4.50;;;2.75;;
70138;SDS011;57507;43.056;0.150;2023-08-17T06:28:26;3.42;;;2.22;;
70138;SDS011;57507;43.056;0.150;2023-08-17T06:30:56;5.25;;;2.45;;
70138;SDS011;57507;43.056;0.150;2023-08-17T06:33:22;4.35;;;3.50;;
70138;SDS011;57507;43.056;0.150;2023-08-17T06:35:49;3.45;;;2.45;;
70138;SDS011;57507;43.056;0.150;2023-08-17T06:38:15;2.40;;;2.20;;
70138;SDS011;57507;43.056;0.150;2023-08-17T06:40:41;5.05;;;3.13;;
70138;SDS011;57507;43.056;0.150;2023-08-17T06:43:07;5.95;;;2.92;;
70138;SDS011;57507;43.056;0.150;2023-08-17T06:45:33;3.80;;;2.33;;
70138;SDS011;57507;43.056;0.150;2023-08-17T06:47:59;3.08;;;2.20;;
70138;SDS011;57507;43.056;0.150;2023-08-17T06:50:25;3.58;;;2.33;;
70138;SDS011;57507;43.056;0.150;2023-08-17T06:52:53;3.90;;;2.55;;
70138;SDS011;57507;43.056;0.150;2023-08-17T06:55:19;3.15;;;2.00;;
70138;SDS011;57507;43.056;0.150;2023-08-17T06:57:45;2.88;;;2.10;;
70138;SDS011;57507;43.056;0.150;2023-08-17T07:00:11;5.85;;;2.65;;
70138;SDS011;57507;43.056;0.150;2023-08-17T07:02:38;3.92;;;2.30;;
70138;SDS011;57507;43.056;0.150;2023-08-17T07:05:04;7.20;;;2.60;;
70138;SDS011;57507;43.056;0.150;2023-08-17T07:07:30;3.22;;;2.15;;
70138;SDS011;57507;43.056;0.150;2023-08-17T07:09:57;2.90;;;2.25;;
70138;SDS011;57507;43.056;0.150;2023-08-17T07:12:23;3.53;;;2.08;;
70138;SDS011;57507;43.056;0.150;2023-08-17T07:14:49;3.03;;;2.20;;
70138;SDS011;57507;43.056;0.150;2023-08-17T07:17:16;5.93;;;2.78;;
70138;SDS011;57507;43.056;0.150;2023-08-17T07:19:42;3.85;;;2.50;;
70138;SDS011;57507;43.056;0.150;2023-08-17T07:22:08;5.88;;;2.42;;
70138;SDS011;57507;43.056;0.150;2023-08-17T07:24:34;5.10;;;2.90;;
70138;SDS011;57507;43.056;0.150;2023-08-17T07:27:00;4.07;;;2.13;;
70138;SDS011;57507;43.056;0.150;2023-08-17T07:29:26;6.75;;;3.38;;
70138;SDS011;57507;43.056;0.150;2023-08-17T07:31:52;3.88;;;3.03;;
70138;SDS011;57507;43.056;0.150;2023-08-17T07:34:19;7.85;;;3.78;;
70138;SDS011;57507;43.056;0.150;2023-08-17T07:36:45;3.05;;;2.45;;
70138;SDS011;57507;43.056;0.150;2023-08-17T07:39:11;5.90;;;3.63;;
70138;SDS011;57507;43.056;0.150;2023-08-17T07:41:38;3.45;;;2.47;;
70138;SDS011;57507;43.056;0.150;2023-08-17T07:44:04;3.67;;;2.50;;
70138;SDS011;57507;43.056;0.150;2023-08-17T07:46:30;7.53;;;3.50;;
70138;SDS011;57507;43.056;0.150;2023-08-17T07:48:56;7.78;;;3.78;;
70138;SDS011;57507;43.056;0.150;2023-08-17T07:51:22;7.97;;;3.63;;
70138;SDS011;57507;43.056;0.150;2023-08-17T07:53:48;5.53;;;3.47;;
70138;SDS011;57507;43.056;0.150;2023-08-17T07:56:14;7.05;;;3.75;;
70138;SDS011;57507;43.056;0.150;2023-08-17T07:58:40;3.55;;;2.67;;
70138;SDS011;57507;43.056;0.150;2023-08-17T08:01:06;4.35;;;3.08;;
70138;SDS011;57507;43.056;0.150;2023-08-17T08:03:32;5.50;;;3.20;;
70138;SDS011;57507;43.056;0.150;2023-08-17T08:05:58;3.13;;;2.30;;
70138;SDS011;57507;43.056;0.150;2023-08-17T08:08:24;3.58;;;2.20;;
70138;SDS011;57507;43.056;0.150;2023-08-17T08:10:52;5.72;;;2.90;;
70138;SDS011;57507;43.056;0.150;2023-08-17T08:13:18;4.53;;;2.80;;
70138;SDS011;57507;43.056;0.150;2023-08-17T08:15:45;4.57;;;2.90;;
70138;SDS011;57507;43.056;0.150;2023-08-17T08:18:11;4.53;;;2.65;;
70138;SDS011;57507;43.056;0.150;2023-08-17T08:20:37;4.88;;;2.90;;
70138;SDS011;57507;43.056;0.150;2023-08-17T08:23:03;5.30;;;2.72;;
70138;SDS011;57507;43.056;0.150;2023-08-17T08:25:29;5.25;;;2.63;;
70138;SDS011;57507;43.056;0.150;2023-08-17T08:27:55;4.85;;;3.33;;
70138;SDS011;57507;43.056;0.150;2023-08-17T08:30:21;4.35;;;2.58;;
70138;SDS011;57507;43.056;0.150;2023-08-17T08:32:47;8.60;;;3.63;;
70138;SDS011;57507;43.056;0.150;2023-08-17T08:35:13;4.25;;;2.65;;
70138;SDS011;57507;43.056;0.150;2023-08-17T08:37:39;4.60;;;2.30;;
70138;SDS011;57507;43.056;0.150;2023-08-17T08:40:06;3.42;;;2.80;;
70138;SDS011;57507;43.056;0.150;2023-08-17T08:42:36;3.25;;;1.98;;
70138;SDS011;57507;43.056;0.150;2023-08-17T08:45:02;5.32;;;2.97;;
70138;SDS011;57507;43.056;0.150;2023-08-17T08:47:28;3.92;;;2.17;;
70138;SDS011;57507;43.056;0.150;2023-08-17T08:49:59;5.07;;;2.63;;
70138;SDS011;57507;43.056;0.150;2023-08-17T08:52:35;2.38;;;2.00;;
70138;SDS011;57507;43.056;0.150;2023-08-17T08:55:11;3.65;;;2.58;;
70138;SDS011;57507;43.056;0.150;2023-08-17T08:57:38;3.55;;;2.55;;
70138;SDS011;57507;43.056;0.150;2023-08-17T09:00:05;5.22;;;3.42;;
70138;SDS011;57507;43.056;0.150;2023-08-17T09:02:32;3.22;;;2.63;;
70138;SDS011;57507;43.056;0.150;2023-08-17T09:04:59;4.43;;;2.72;;
70138;SDS011;57507;43.056;0.150;2023-08-17T09:07:25;3.90;;;2.20;;
70138;SDS011;57507;43.056;0.150;2023-08-17T09:09:53;3.78;;;2.30;;
70138;SDS011;57507;43.056;0.150;2023-08-17T09:12:19;4.68;;;2.83;;
70138;SDS011;57507;43.056;0.150;2023-08-17T09:14:45;4.03;;;3.00;;
70138;SDS011;57507;43.056;0.150;2023-08-17T09:17:11;5.03;;;2.92;;
70138;SDS011;57507;43.056;0.150;2023-08-17T09:19:37;8.00;;;2.90;;
70138;SDS011;57507;43.056;0.150;2023-08-17T09:22:03;4.82;;;2.75;;
70138;SDS011;57507;43.056;0.150;2023-08-17T09:24:36;3.55;;;2.28;;
70138;SDS011;57507;43.056;0.150;2023-08-17T09:27:02;4.00;;;2.50;;
70138;SDS011;57507;43.056;0.150;2023-08-17T09:29:29;4.22;;;2.70;;
70138;SDS011;57507;43.056;0.150;2023-08-17T09:32:06;3.20;;;2.45;;
70138;SDS011;57507;43.056;0.150;2023-08-17T09:34:32;4.70;;;3.17;;
70138;SDS011;57507;43.056;0.150;2023-08-17T09:37:05;3.78;;;2.85;;
70138;SDS011;57507;43.056;0.150;2023-08-17T09:39:31;4.63;;;2.70;;
70138;SDS011;57507;43.056;0.150;2023-08-17T09:41:57;5.72;;;3.65;;
70138;SDS011;57507;43.056;0.150;2023-08-17T09:44:24;5.18;;;3.60;;
70138;SDS011;57507;43.056;0.150;2023-08-17T09:46:51;6.75;;;3.80;;
70138;SDS011;57507;43.056;0.150;2023-08-17T09:49:17;5.20;;;3.30;;
70138;SDS011;57507;43.056;0.150;2023-08-17T09:51:44;3.13;;;2.50;;
70138;SDS011;57507;43.056;0.150;2023-08-17T09:54:18;4.80;;;2.83;;
70138;SDS011;57507;43.056;0.150;2023-08-17T09:56:46;3.60;;;2.40;;
70138;SDS011;57507;43.056;0.150;2023-08-17T09:59:12;6.10;;;3.03;;
70138;SDS011;57507;43.056;0.150;2023-08-17T10:01:38;3.53;;;2.20;;
70138;SDS011;57507;43.056;0.150;2023-08-17T10:04:05;6.47;;;2.90;;
70138;SDS011;57507;43.056;0.150;2023-08-17T10:06:31;4.40;;;3.28;;
70138;SDS011;57507;43.056;0.150;2023-08-17T10:08:58;4.07;;;3.45;;
70138;SDS011;57507;43.056;0.150;2023-08-17T10:11:25;5.18;;;3.67;;
70138;SDS011;57507;43.056;0.150;2023-08-17T10:13:57;4.47;;;2.95;;
70138;SDS011;57507;43.056;0.150;2023-08-17T10:16:25;4.15;;;3.20;;
70138;SDS011;57507;43.056;0.150;2023-08-17T10:21:36;3.28;;;2.58;;
70138;SDS011;57507;43.056;0.150;2023-08-17T10:24:03;3.90;;;2.90;;
70138;SDS011;57507;43.056;0.150;2023-08-17T10:26:30;2.97;;;2.67;;
70138;SDS011;57507;43.056;0.150;2023-08-17T10:28:56;3.63;;;2.88;;
70138;SDS011;57507;43.056;0.150;2023-08-17T10:31:25;4.03;;;2.90;;
70138;SDS011;57507;43.056;0.150;2023-08-17T10:33:51;5.10;;;3.05;;
70138;SDS011;57507;43.056;0.150;2023-08-17T10:36:17;5.97;;;3.22;;
70138;SDS011;57507;43.056;0.150;2023-08-17T10:38:44;6.50;;;4.22;;
70138;SDS011;57507;43.056;0.150;2023-08-17T10:41:13;5.35;;;3.60;;
70138;SDS011;57507;43.056;0.150;2023-08-17T10:43:56;4.50;;;3.83;;
70138;SDS011;57507;43.056;0.150;2023-08-17T10:46:31;7.70;;;4.22;;
70138;SDS011;57507;43.056;0.150;2023-08-17T10:49:00;8.43;;;5.25;;
70138;SDS011;57507;43.056;0.150;2023-08-17T10:51:26;6.85;;;4.35;;
70138;SDS011;57507;43.056;0.150;2023-08-17T10:53:52;7.60;;;4.30;;
70138;SDS011;57507;43.056;0.150;2023-08-17T10:56:18;7.95;;;4.13;;
70138;SDS011;57507;43.056;0.150;2023-08-17T10:58:44;6.68;;;4.22;;
70138;SDS011;57507;43.056;0.150;2023-08-17T11:01:10;6.72;;;4.13;;
70138;SDS011;57507;43.056;0.150;2023-08-17T11:03:37;8.82;;;4.43;;
70138;SDS011;57507;43.056;0.150;2023-08-17T11:06:18;6.40;;;4.20;;
70138;SDS011;57507;43.056;0.150;2023-08-17T11:08:51;8.23;;;4.35;;
70138;SDS011;57507;43.056;0.150;2023-08-17T11:11:19;6.93;;;4.57;;
70138;SDS011;57507;43.056;0.150;2023-08-17T11:13:46;8.00;;;4.32;;
70138;SDS011;57507;43.056;0.150;2023-08-17T11:16:13;6.93;;;4.00;;
70138;SDS011;57507;43.056;0.150;2023-08-17T11:18:40;7.25;;;4.50;;
70138;SDS011;57507;43.056;0.150;2023-08-17T11:21:06;6.47;;;4.68;;
70138;SDS011;57507;43.056;0.150;2023-08-17T11:23:34;6.45;;;5.13;;
70138;SDS011;57507;43.056;0.150;2023-08-17T11:26:01;6.20;;;4.07;;
70138;SDS011;57507;43.056;0.150;2023-08-17T11:28:29;5.68;;;3.88;;
70138;SDS011;57507;43.056;0.150;2023-08-17T11:33:27;7.82;;;4.90;;
70138;SDS011;57507;43.056;0.150;2023-08-17T11:35:54;5.63;;;4.20;;
70138;SDS011;57507;43.056;0.150;2023-08-17T11:38:20;6.75;;;4.82;;
70138;SDS011;57507;43.056;0.150;2023-08-17T11:40:47;6.70;;;4.30;;
70138;SDS011;57507;43.056;0.150;2023-08-17T11:43:13;8.80;;;4.57;;
70138;SDS011;57507;43.056;0.150;2023-08-17T11:45:39;6.90;;;4.53;;
70138;SDS011;57507;43.056;0.150;2023-08-17T11:48:06;7.53;;;4.65;;
70138;SDS011;57507;43.056;0.150;2023-08-17T11:50:32;8.90;;;5.13;;
70138;SDS011;57507;43.056;0.150;2023-08-17T11:52:59;6.43;;;4.32;;
70138;SDS011;57507;43.056;0.150;2023-08-17T11:55:26;5.63;;;4.32;;
70138;SDS011;57507;43.056;0.150;2023-08-17T11:57:52;5.47;;;4.28;;
70138;SDS011;57507;43.056;0.150;2023-08-17T12:00:19;7.05;;;4.63;;
70138;SDS011;57507;43.056;0.150;2023-08-17T12:02:49;6.38;;;4.22;;
70138;SDS011;57507;43.056;0.150;2023-08-17T12:05:18;6.15;;;3.90;;
70138;SDS011;57507;43.056;0.150;2023-08-17T12:07:45;7.72;;;4.68;;
70138;SDS011;57507;43.056;0.150;2023-08-17T12:10:11;6.63;;;4.13;;
70138;SDS011;57507;43.056;0.150;2023-08-17T12:12:37;7.43;;;4.60;;
70138;SDS011;57507;43.056;0.150;2023-08-17T12:15:04;9.40;;;4.75;;
70138;SDS011;57507;43.056;0.150;2023-08-17T12:17:30;6.78;;;4.18;;
70138;SDS011;57507;43.056;0.150;2023-08-17T12:19:58;6.40;;;4.50;;
70138;SDS011;57507;43.056;0.150;2023-08-17T12:22:25;7.18;;;4.47;;
70138;SDS011;57507;43.056;0.150;2023-08-17T12:24:51;6.53;;;4.57;;
70138;SDS011;57507;43.056;0.150;2023-08-17T12:27:18;8.52;;;5.30;;
70138;SDS011;57507;43.056;0.150;2023-08-17T12:29:50;7.85;;;4.95;;
70138;SDS011;57507;43.056;0.150;2023-08-17T12:32:17;7.03;;;4.38;;
70138;SDS011;57507;43.056;0.150;2023-08-17T12:34:43;6.35;;;4.22;;
70138;SDS011;57507;43.056;0.150;2023-08-17T12:37:10;7.60;;;4.82;;
70138;SDS011;57507;43.056;0.150;2023-08-17T12:39:36;5.57;;;4.07;;
70138;SDS011;57507;43.056;0.150;2023-08-17T12:42:03;7.72;;;4.10;;
70138;SDS011;57507;43.056;0.150;2023-08-17T12:44:29;5.57;;;4.30;;
70138;SDS011;57507;43.056;0.150;2023-08-17T12:46:55;7.47;;;5.15;;
70138;SDS011;57507;43.056;0.150;2023-08-17T12:49:22;5.75;;;4.30;;
70138;SDS011;57507;43.056;0.150;2023-08-17T12:51:49;6.10;;;4.35;;
70138;SDS011;57507;43.056;0.150;2023-08-17T12:54:15;7.22;;;4.40;;
70138;SDS011;57507;43.056;0.150;2023-08-17T12:56:41;8.68;;;4.80;;
70138;SDS011;57507;43.056;0.150;2023-08-17T12:59:07;7.22;;;4.80;;
70138;SDS011;57507;43.056;0.150;2023-08-17T13:01:33;9.05;;;4.47;;
70138;SDS011;57507;43.056;0.150;2023-08-17T13:03:59;7.07;;;4.80;;
70138;SDS011;57507;43.056;0.150;2023-08-17T13:06:25;6.32;;;4.68;;
70138;SDS011;57507;43.056;0.150;2023-08-17T13:08:51;6.63;;;4.60;;
70138;SDS011;57507;43.056;0.150;2023-08-17T13:11:17;4.68;;;3.80;;
70138;SDS011;57507;43.056;0.150;2023-08-17T13:13:43;5.95;;;4.57;;
70138;SDS011;57507;43.056;0.150;2023-08-17T13:16:09;6.60;;;4.47;;
70138;SDS011;57507;43.056;0.150;2023-08-17T13:18:36;6.35;;;4.30;;
70138;SDS011;57507;43.056;0.150;2023-08-17T13:21:03;5.93;;;4.00;;
70138;SDS011;57507;43.056;0.150;2023-08-17T13:23:29;5.88;;;4.28;;
70138;SDS011;57507;43.056;0.150;2023-08-17T13:25:55;6.55;;;4.07;;
70138;SDS011;57507;43.056;0.150;2023-08-17T13:28:21;7.75;;;4.25;;
70138;SDS011;57507;43.056;0.150;2023-08-17T13:30:47;5.35;;;3.90;;
70138;SDS011;57507;43.056;0.150;2023-08-17T13:33:13;6.60;;;4.70;;
70138;SDS011;57507;43.056;0.150;2023-08-17T13:35:41;6.05;;;4.20;;
70138;SDS011;57507;43.056;0.150;2023-08-17T13:38:07;5.88;;;4.32;;
70138;SDS011;57507;43.056;0.150;2023-08-17T13:40:33;6.20;;;3.80;;
70138;SDS011;57507;43.056;0.150;2023-08-17T13:43:01;6.95;;;4.40;;
70138;SDS011;57507;43.056;0.150;2023-08-17T13:45:28;6.28;;;3.92;;
70138;SDS011;57507;43.056;0.150;2023-08-17T13:47:54;6.10;;;4.07;;
70138;SDS011;57507;43.056;0.150;2023-08-17T13:50:20;8.02;;;4.68;;
70138;SDS011;57507;43.056;0.150;2023-08-17T13:52:46;7.32;;;4.18;;
70138;SDS011;57507;43.056;0.150;2023-08-17T13:55:12;5.35;;;4.28;;
70138;SDS011;57507;43.056;0.150;2023-08-17T13:57:38;5.45;;;3.78;;
70138;SDS011;57507;43.056;0.150;2023-08-17T14:00:05;8.77;;;5.13;;
70138;SDS011;57507;43.056;0.150;2023-08-17T14:02:31;6.20;;;4.47;;
70138;SDS011;57507;43.056;0.150;2023-08-17T14:04:57;5.32;;;4.18;;
70138;SDS011;57507;43.056;0.150;2023-08-17T14:07:23;6.05;;;4.03;;
70138;SDS011;57507;43.056;0.150;2023-08-17T14:09:49;6.13;;;3.95;;
70138;SDS011;57507;43.056;0.150;2023-08-17T14:12:15;4.13;;;3.63;;
70138;SDS011;57507;43.056;0.150;2023-08-17T14:14:41;6.32;;;4.10;;
70138;SDS011;57507;43.056;0.150;2023-08-17T14:17:07;7.82;;;4.43;;
70138;SDS011;57507;43.056;0.150;2023-08-17T14:19:33;6.35;;;3.95;;
70138;SDS011;57507;43.056;0.150;2023-08-17T14:21:59;5.05;;;4.15;;
70138;SDS011;57507;43.056;0.150;2023-08-17T14:24:26;5.07;;;3.90;;
70138;SDS011;57507;43.056;0.150;2023-08-17T14:26:52;4.60;;;3.72;;
70138;SDS011;57507;43.056;0.150;2023-08-17T14:29:18;8.23;;;4.20;;
70138;SDS011;57507;43.056;0.150;2023-08-17T14:31:44;5.72;;;4.40;;
70138;SDS011;57507;43.056;0.150;2023-08-17T14:34:10;5.85;;;4.22;;
70138;SDS011;57507;43.056;0.150;2023-08-17T14:36:36;5.78;;;4.10;;
70138;SDS011;57507;43.056;0.150;2023-08-17T14:39:02;5.65;;;4.30;;
70138;SDS011;57507;43.056;0.150;2023-08-17T14:41:28;6.43;;;4.35;;
70138;SDS011;57507;43.056;0.150;2023-08-17T14:43:58;6.28;;;4.95;;
70138;SDS011;57507;43.056;0.150;2023-08-17T14:46:24;5.38;;;4.32;;
70138;SDS011;57507;43.056;0.150;2023-08-17T14:48:50;7.55;;;4.47;;
70138;SDS011;57507;43.056;0.150;2023-08-17T14:51:16;7.45;;;4.80;;
70138;SDS011;57507;43.056;0.150;2023-08-17T14:53:43;6.35;;;4.30;;
70138;SDS011;57507;43.056;0.150;2023-08-17T14:56:09;5.63;;;4.68;;